Terminal Aerodrome Forecast
Issued by NWS Shreveport, LA

Home | Current Version | Previous Version | Text Only | Print | Product List | Glossary On
Versions: 1 2 3 4 5 6 7 8 9 10 11 12
772
FTUS44 KSHV 121720
TAFTXK
TAF
KTXK 121720Z 1218/1318 VRB04KT P6SM SKC
     FM130000 03004KT P6SM SCT160
     FM131200 06008KT P6SM SCT160
     FM131500 08010KT P6SM SKC=

USA.gov is the U.S. government's official web portal to all federal, state and local government web resources and services.